AirNav   Pilot Hours Calculator
 
 402 users online  

1LA1 Triche Field Airport
Hahnville, Louisiana, USA

GOING TO HAHNVILLE?


FAA INFORMATION EFFECTIVE 05 DECEMBER 2019

Location

FAA Identifier: 1LA1
Lat/Long: 29-59-00.7340N 090-26-05.2970W
29-59.012233N 090-26.088283W
29.9835372,-90.4348047
(estimated)
Elevation: 10 ft. / 3 m (estimated)
Variation: 03E (1985)
From city: 2 miles NW of HAHNVILLE, LA
Time zone: UTC -6 (UTC -5 during Daylight Saving Time)
Zip code: 70079

Airport Operations

Airport use: Private use. Permission required prior to landing
Activation date: 11/1975
Control tower: no
ARTCC: HOUSTON CENTER
FSS: DE RIDDER FLIGHT SERVICE STATION
Attendance: UNATNDD
Wind indicator: yes
Segmented circle: no

Airport Communications

WX ASOS at MSY (9 nm E): PHONE (504)471-4486
WX AWOS-3PT at APS (10 nm NW): 125.45 (985-536-1009)
WX AWOS-3PT at 7N0 (18 nm E): 133.10 (504-525-1711)

Nearby radio navigation aids

VOR radial/distance  VOR name  Freq  Var
RQRr126/10.1RESERVE VOR/DME110.8002E
HRVr288/23.8HARVEY VORTAC114.1002E
TBDr045/28.1TIBBY VOR/DME112.0002E
HMUr182/(32.2)HAMMOND VOR109.6000E

Airport Services

Runway Information

Runway 2/20

Dimensions: 4000 x 100 ft. / 1219 x 30 m
Surface: turf
RUNWAY 2  RUNWAY 20
Traffic pattern: rightleft
Obstructions: none20 ft. pline, 500 ft. from runway

Airport Ownership and Management from official FAA records

Ownership: Privately-owned
Owner: TRICHE BROS FLYING SVC
16717 RIVER RD
HAHNVILLE, LA 70057
Phone 504-783-2260
Manager: L TAFT TRICHE JR
16717 RIVER RD
HAHNVILLE, LA 70057
Phone 504-783-2757

Airport Operational Statistics

Aircraft based on the field: 3
Single engine airplanes: 3
    

Additional Remarks

FOUR LIGHTING POLES APRXLY 60 FT TALL LOCATED 20 FT FROM WEST SIDE OF RUNWAY NEAR SOUTH END.
FOR CD CTC NEW ORLEANS APCH AT 504-471-4350.

Instrument Procedures

There are no published instrument procedures at 1LA1.

Some nearby airports with instrument procedures:

KMSY - Louis Armstrong New Orleans International Airport (9 nm E)
KAPS - Port of South Louisiana Executive Regional Airport (10 nm NW)
KNEW - Lakefront Airport (21 nm E)
KNBG - New Orleans Naval Air Station Joint Reserve Base//Alvin Callender Field (23 nm SE)
L83 - Thibodaux Municipal Airport (25 nm SW)
 
Loc | Ops | Rwys | IFR | FBO | Links
Com | Nav | Svcs | Stats | Notes
Area around 1LA1 (Triche Field Airport)
 
Road maps at: MapQuest Bing Google
 
Aerial photo
No photo
 
Sectional chart

 
Airport distance calculator
Flying to Triche Field Airport? Find the distance to fly.

From to 1LA1

Sunrise and sunset
Times for 16-Dec-2019
 Local
(UTC-6)
 Zulu
(UTC)
Morning civil twilight06:2512:25
Sunrise06:5212:52
Sunset17:0323:03
Evening civil twilight17:2923:29

Current date and time
Zulu (UTC)  16-Dec-2019 06:18:07
Local (UTC-6)  16-Dec-2019 00:18:07
 
METAR
KMSY 
10nm E 
160553Z 16009KT 10SM FEW040 21/18 A2996 RMK AO2 SLP148 T02060178 10206 20183 402560122 58009
KAPS 
10nm NW 
160555Z AUTO 20007KT 10SM SCT043 19/17 A2996 RMK AO2 T01900166 10200 20186 402820136
K7N0 
18nm E 
160556Z AUTO VRB06KT 10SM CLR 18/17 A2998 RMK AO2 SLP152 T01830172 10206 20183 58007
TAF
KMSY 
10nm E 
160541Z 1606/1712 17015G19KT P6SM SCT030 FM160900 17005KT P6SM SCT020 BKN045 FM161100 17005KT P6SM VCSH SCT015 BKN050 FM162000 18016G22KT P6SM VCSH SCT015 OVC030 TEMPO 1702/1705 P6SM TSRA BKN025CB FM170900 34019KT P6SM OVC007
NOTAMs
Click for the latest NOTAMs
NOTAMs are issued by the DoD/FAA and will open in a separate window not controlled by AirNav.

 

 
 

Would you like to see your business listed on this page?

 If your business provides an interesting product or service to pilots, flight crews, aircraft, or users of the Triche Field Airport, you should consider listing it here.  To start the listing process, click on the button below
 
Add a business
 

Other Pages about Triche Field Airport

Update a link
 
Copyright © AirNav, LLC. All rights reserved. Privacy Policy  Contact